2000 ELINE:LEON:LEONE_ELINE (2000032S11115)


On this page: IBTrACS data - Map and Plots - Positions - Intensities - Original source data

Summary

Start Feb 1
End Feb 29
Basin SI
LMI 115 kt
Sources jtwc_sh
bom
reunion
neumann
In WMO? Yes
Previous storm 2000 DAMIENNE (SI)
Previous in basin 2000 DAMIENNE (SI)
Concurrent storms 2000 JO (SP)
2000 KIRRILY (SI)
2000 CONNIE (SI)
2000 DAMIENNE (SI)
2000 ELINE (SI)
2000 MARCIA (SI)
2000 FELICIA (SI)
2000 KIM (SP)
2000 STEVE (SP)
2000 GLORIA (SI)
2000 0919992000 (SI)
2000 NORMAN (SI)
Next in basin 2000 MARCIA (SI)
Next storm 2000 MARCIA (SI)

top of page IBTrACS Data: File Access

top of page HURSAT Data: File Access

Image of storm

top of page Plots:

Map of storm track will not appear if FTP is down
Time series of cyclone Maximum Sustained Wind will not appear if FTP is down
Time series of cyclone Minimum Central Pressure will not appear if FTP is down

top of page Track Data:Position

jtwc_sh bom reunion neumann
Date Lat Lon Lat Lon Lat Lon Lat Lon
2000-02-01 06:00:00 -10.5 115.2
2000-02-01 12:00:00 -10.5 114.4
2000-02-01 18:00:00 -10.5 113.7
2000-02-02 00:00:00 -10.5 113.0
2000-02-02 06:00:00 -10.5 112.3
2000-02-02 12:00:00 -10.7 111.6
2000-02-02 18:00:00 -10.9 111.0
2000-02-03 00:00:00 -11.0 110.4 -11.1 110.3 -11.0 110.4
2000-02-03 06:00:00 -11.2 109.6 -11.3 109.7 -11.2 109.6
2000-02-03 12:00:00 -11.5 108.7 -11.6 108.9 -11.5 108.7
2000-02-03 18:00:00 -11.8 107.9 -11.9 107.7 -11.8 107.9
2000-02-04 00:00:00 -12.1 107.1 -12.3 106.7 -12.1 107.1
2000-02-04 06:00:00 -12.5 106.1 -12.6 105.9 -12.5 106.1
2000-02-04 12:00:00 -13.2 105.4 -12.9 105.0 -13.2 105.4
2000-02-04 18:00:00 -13.8 105.0 -13.4 104.4 -13.8 105.0
2000-02-05 00:00:00 -14.0 104.2 -13.8 103.9 -14.0 104.2
2000-02-05 06:00:00 -14.4 103.5 -14.3 103.4 -14.4 103.5
2000-02-05 12:00:00 -14.8 102.8 -14.8 102.8 -14.8 102.8
2000-02-05 18:00:00 -15.4 102.3 -15.3 101.9 -15.4 102.3
2000-02-06 00:00:00 -15.9 101.6 -15.8 101.0 -15.9 101.6
2000-02-06 06:00:00 -16.5 100.7 -16.3 100.2 -16.5 100.7
2000-02-06 12:00:00 -17.0 99.8 -16.9 99.4 -17.0 99.8
2000-02-06 18:00:00 -17.4 99.0 -16.8 98.7 -17.4 99.0
2000-02-07 00:00:00 -17.6 98.1 -16.8 97.9 -17.6 98.1
2000-02-07 06:00:00 -17.7 97.1 -16.9 96.9 -17.3 96.9 -17.7 97.1
jtwc_sh bom reunion neumann
2000-02-07 12:00:00 -17.6 96.0 -17.1 95.5 -17.3 95.8 -17.6 96.0
2000-02-07 18:00:00 -17.5 94.6 -17.4 94.0 -17.3 94.5 -17.5 94.6
2000-02-08 00:00:00 -17.9 93.1 -17.6 92.8 -17.3 93.3 -17.9 93.1
2000-02-08 06:00:00 -17.5 91.6 -17.6 91.7 -17.2 92.1 -17.5 91.6
2000-02-08 12:00:00 -17.2 90.3 -17.7 90.7 -17.0 90.4 -17.2 90.3
2000-02-08 18:00:00 -17.0 89.0 -17.7 89.7 -17.2 89.2 -17.0 89.0
2000-02-09 00:00:00 -17.5 87.6 -17.7 88.7 -17.6 87.7 -17.5 87.6
2000-02-09 06:00:00 -17.8 86.0 -18.1 85.7 -17.8 86.0
2000-02-09 12:00:00 -18.3 84.3 -18.3 84.1 -18.3 84.3
2000-02-09 18:00:00 -18.3 82.4 -18.3 82.4 -18.3 82.4
2000-02-10 00:00:00 -18.2 80.7 -18.2 80.6 -18.2 80.7
2000-02-10 06:00:00 -18.1 79.2 -17.9 79.3 -18.1 79.2
2000-02-10 12:00:00 -17.9 77.9 -17.7 78.1 -17.9 77.9
2000-02-10 18:00:00 -17.8 76.6 -17.8 76.7 -17.8 76.6
2000-02-11 00:00:00 -17.6 75.3 -17.7 74.9 -17.6 75.3
2000-02-11 06:00:00 -17.5 73.6 -17.6 73.6 -17.5 73.6
2000-02-11 12:00:00 -17.5 72.0 -17.4 72.2 -17.5 72.0
2000-02-11 18:00:00 -17.4 70.4 -16.9 70.9 -17.4 70.4
2000-02-12 00:00:00 -16.9 69.2 -16.5 69.6 -16.9 69.2
2000-02-12 06:00:00 -16.5 68.3 -16.2 68.2 -16.5 68.3
2000-02-12 12:00:00 -16.3 67.2 -16.2 67.0 -16.3 67.2
2000-02-12 18:00:00 -16.1 66.0 -16.1 65.5 -16.1 66.0
2000-02-13 00:00:00 -15.8 64.7 -15.9 64.0 -15.8 64.7
2000-02-13 06:00:00 -15.8 63.5 -15.8 63.1 -15.8 63.5
jtwc_sh bom reunion neumann
2000-02-13 12:00:00 -16.0 62.6 -16.1 62.1 -16.0 62.6
2000-02-13 18:00:00 -16.3 61.6 -16.5 61.5 -16.3 61.6
2000-02-14 00:00:00 -17.0 60.9 -17.0 60.8 -17.0 60.9
2000-02-14 06:00:00 -17.5 59.9 -17.3 59.8 -17.5 59.9
2000-02-14 12:00:00 -17.9 58.9 -17.6 58.8 -17.9 58.9
2000-02-14 18:00:00 -18.2 58.0 -18.0 57.9 -18.2 58.0
2000-02-15 00:00:00 -18.5 57.2 -18.4 57.0 -18.5 57.2
2000-02-15 06:00:00 -18.8 56.4 -18.8 56.1 -18.8 56.4
2000-02-15 12:00:00 -19.1 55.6 -18.9 55.5 -19.1 55.6
2000-02-15 18:00:00 -19.5 54.9 -19.5 54.8 -19.5 54.9
2000-02-16 00:00:00 -20.0 54.1 -20.0 54.0 -20.0 54.1
2000-02-16 06:00:00 -20.3 53.1 -20.5 52.8 -20.3 53.1
2000-02-16 12:00:00 -20.4 52.2 -20.4 51.9 -20.4 52.2
2000-02-16 18:00:00 -20.3 51.6 -20.2 51.5 -20.3 51.6
2000-02-17 00:00:00 -20.1 50.9 -19.9 51.0 -20.1 50.9
2000-02-17 06:00:00 -20.0 50.3 -19.9 50.2 -20.0 50.3
2000-02-17 12:00:00 -19.9 49.5 -19.8 49.3 -19.9 49.5
2000-02-17 18:00:00 -19.6 48.5 -19.5 48.5 -19.6 48.5
2000-02-18 00:00:00 -19.2 47.5 -18.8 47.6 -19.2 47.5
2000-02-18 06:00:00 -19.3 46.4 -19.1 46.3 -19.3 46.4
2000-02-18 12:00:00 -19.4 45.1 -19.3 45.1 -19.4 45.1
2000-02-18 18:00:00 -19.8 44.1 -19.4 44.4 -19.8 44.1
2000-02-19 00:00:00 -20.2 43.2 -19.8 43.5 -20.2 43.2
2000-02-19 06:00:00 -20.5 42.5 -20.5 42.5 -20.5 42.5
jtwc_sh bom reunion neumann
2000-02-19 12:00:00 -20.9 41.9 -21.1 41.9 -20.9 41.9
2000-02-19 18:00:00 -21.4 41.4 -21.7 41.1 -21.4 41.4
2000-02-20 00:00:00 -21.9 40.5 -22.0 40.1 -21.9 40.5
2000-02-20 06:00:00 -22.1 39.5 -22.1 39.4 -22.1 39.5
2000-02-20 12:00:00 -22.1 38.7 -22.3 38.2 -22.1 38.7
2000-02-20 18:00:00 -22.0 37.9 -22.0 37.7 -22.0 37.9
2000-02-21 00:00:00 -21.9 37.4 -21.8 37.4 -21.9 37.4
2000-02-21 06:00:00 -21.7 37.0 -21.4 37.0 -21.7 37.0
2000-02-21 12:00:00 -21.4 36.6 -21.2 36.5 -21.4 36.6
2000-02-21 18:00:00 -21.1 36.1 -21.1 36.1 -21.1 36.1
2000-02-22 00:00:00 -20.8 35.7 -20.8 35.3 -20.8 35.7
2000-02-22 06:00:00 -20.6 35.1 -20.6 34.7 -20.6 35.1
2000-02-22 12:00:00 -20.4 34.1 -20.2 33.8 -20.4 34.1
2000-02-22 18:00:00 -19.8 32.9 -19.8 33.0 -19.8 32.9
2000-02-23 00:00:00 -19.5 31.7 -19.5 31.7 -19.5 31.7
2000-02-23 06:00:00 -19.2 30.7 -19.2 30.5 -19.2 30.7
2000-02-23 12:00:00 -18.8 29.7 -19.3 29.8 -18.8 29.7
2000-02-23 18:00:00 -19.5 29.2
2000-02-24 00:00:00 -19.7 28.6
2000-02-24 06:00:00 -19.8 28.1
2000-02-24 12:00:00 -20.0 27.3
2000-02-24 18:00:00 -20.1 26.7
2000-02-25 00:00:00 -20.2 25.9
2000-02-25 06:00:00 -20.2 25.0
jtwc_sh bom reunion neumann
2000-02-25 12:00:00 -20.3 24.2
2000-02-25 18:00:00 -20.3 23.6
2000-02-26 00:00:00 -20.3 22.9
2000-02-26 06:00:00 -20.3 22.2
2000-02-26 12:00:00 -20.4 21.7
2000-02-26 18:00:00 -20.4 21.2
2000-02-27 00:00:00 -20.5 20.7
2000-02-27 06:00:00 -20.6 20.3
2000-02-27 12:00:00 -20.7 19.9
2000-02-27 18:00:00 -20.9 19.5
2000-02-28 00:00:00 -21.2 19.1
2000-02-28 06:00:00 -21.4 18.8
2000-02-28 12:00:00 -21.8 18.7
2000-02-28 18:00:00 -22.3 18.8
2000-02-29 00:00:00 -22.8 18.9
2000-02-29 06:00:00 -23.3 18.9
2000-02-29 12:00:00 -23.8 18.7

top of pageTrack Data:Intensity

jtwc_sh bom reunion neumann
Date Wind Pres Wind Pres Wind Pres Wind Pres
2000-02-01 06:00:00 27. 1000.
2000-02-01 12:00:00 27. 1000.
2000-02-01 18:00:00 27. 1000.
2000-02-02 00:00:00 27. 1000.
2000-02-02 06:00:00 27. 1000.
2000-02-02 12:00:00 27. 1000.
2000-02-02 18:00:00 27. 1000.
2000-02-03 00:00:00 25. 27. 1000. 25.
2000-02-03 06:00:00 25. 27. 1000. 25.
2000-02-03 12:00:00 25. 27. 1000. 25.
2000-02-03 18:00:00 25. 27. 1000. 25.
2000-02-04 00:00:00 30. 35. 995. 30.
2000-02-04 06:00:00 35. 41. 990. 35.
2000-02-04 12:00:00 35. 49. 985. 35.
2000-02-04 18:00:00 35. 49. 985. 35.
2000-02-05 00:00:00 55. 54. 980. 55.
2000-02-05 06:00:00 55. 60. 975. 55.
2000-02-05 12:00:00 55. 64. 970. 55.
2000-02-05 18:00:00 55. 70. 965. 55.
2000-02-06 00:00:00 60. 76. 960. 60.
2000-02-06 06:00:00 65. 76. 960. 65.
2000-02-06 12:00:00 70. 76. 960. 70.
2000-02-06 18:00:00 75. 76. 960. 75.
2000-02-07 00:00:00 70. 70. 965. 70.
2000-02-07 06:00:00 65. 64. 970. 60. 975. 65.
jtwc_sh bom reunion neumann
2000-02-07 12:00:00 65. 54. 980. 55. 980. 65.
2000-02-07 18:00:00 55. 49. 985. 50. 983. 55.
2000-02-08 00:00:00 50. 41. 990. 45. 987. 50.
2000-02-08 06:00:00 45. 41. 990. 40. 990. 45.
2000-02-08 12:00:00 40. 41. 990. 38. 992. 40.
2000-02-08 18:00:00 40. 41. 990. 35. 995. 40.
2000-02-09 00:00:00 40. 41. 990. 40. 990. 40.
2000-02-09 06:00:00 40. 43. 988. 40.
2000-02-09 12:00:00 40. 43. 988. 40.
2000-02-09 18:00:00 40. 43. 988. 40.
2000-02-10 00:00:00 40. 40. 990. 40.
2000-02-10 06:00:00 40. 40. 990. 40.
2000-02-10 12:00:00 35. 40. 990. 35.
2000-02-10 18:00:00 35. 38. 992. 35.
2000-02-11 00:00:00 35. 38. 992. 35.
2000-02-11 06:00:00 35. 35. 995. 35.
2000-02-11 12:00:00 35. 35. 995. 35.
2000-02-11 18:00:00 35. 38. 992. 35.
2000-02-12 00:00:00 40. 40. 990. 40.
2000-02-12 06:00:00 40. 40. 990. 40.
2000-02-12 12:00:00 45. 40. 990. 45.
2000-02-12 18:00:00 45. 43. 988. 45.
2000-02-13 00:00:00 45. 43. 988. 45.
2000-02-13 06:00:00 45. 43. 988. 45.
jtwc_sh bom reunion neumann
2000-02-13 12:00:00 50. 43. 988. 50.
2000-02-13 18:00:00 60. 50. 983. 60.
2000-02-14 00:00:00 70. 60. 975. 70.
2000-02-14 06:00:00 70. 60. 975. 70.
2000-02-14 12:00:00 70. 60. 975. 70.
2000-02-14 18:00:00 70. 55. 978. 70.
2000-02-15 00:00:00 70. 55. 978. 70.
2000-02-15 06:00:00 65. 55. 980. 65.
2000-02-15 12:00:00 65. 55. 978. 65.
2000-02-15 18:00:00 65. 60. 975. 65.
2000-02-16 00:00:00 65. 60. 973. 65.
2000-02-16 06:00:00 65. 65. 970. 65.
2000-02-16 12:00:00 65. 65. 970. 65.
2000-02-16 18:00:00 65. 70. 965. 65.
2000-02-17 00:00:00 65. 70. 965. 65.
2000-02-17 06:00:00 80. 75. 960. 80.
2000-02-17 12:00:00 80. 80. 953. 80.
2000-02-17 18:00:00 75. 90. 940. 75.
2000-02-18 00:00:00 65. 65.
2000-02-18 06:00:00 45. 45.
2000-02-18 12:00:00 30. 30.
2000-02-18 18:00:00 30. 30.
2000-02-19 00:00:00 35. 30. 999. 35.
2000-02-19 06:00:00 35. 30. 997. 35.
jtwc_sh bom reunion neumann
2000-02-19 12:00:00 35. 35. 995. 35.
2000-02-19 18:00:00 35. 40. 992. 35.
2000-02-20 00:00:00 45. 45. 988. 45.
2000-02-20 06:00:00 55. 50. 983. 55.
2000-02-20 12:00:00 55. 55. 978. 55.
2000-02-20 18:00:00 65. 60. 975. 65.
2000-02-21 00:00:00 65. 60. 975. 65.
2000-02-21 06:00:00 65. 60. 975. 65.
2000-02-21 12:00:00 70. 65. 970. 70.
2000-02-21 18:00:00 90. 80. 955. 90.
2000-02-22 00:00:00 100. 95. 935. 100.
2000-02-22 06:00:00 115. 100. 930. 115.
2000-02-22 12:00:00 90. 75. 960. 90.
2000-02-22 18:00:00 55. 55.
2000-02-23 00:00:00 45. 45.
2000-02-23 06:00:00 30. 30.
2000-02-23 12:00:00 25. 25.
2000-02-23 18:00:00
2000-02-24 00:00:00
2000-02-24 06:00:00
2000-02-24 12:00:00
2000-02-24 18:00:00
2000-02-25 00:00:00
2000-02-25 06:00:00
jtwc_sh bom reunion neumann
2000-02-25 12:00:00
2000-02-25 18:00:00
2000-02-26 00:00:00
2000-02-26 06:00:00
2000-02-26 12:00:00
2000-02-26 18:00:00
2000-02-27 00:00:00
2000-02-27 06:00:00
2000-02-27 12:00:00
2000-02-27 18:00:00
2000-02-28 00:00:00
2000-02-28 06:00:00
2000-02-28 12:00:00
2000-02-28 18:00:00
2000-02-29 00:00:00
2000-02-29 06:00:00
2000-02-29 12:00:00

top of page Links to source data

Source Source file Format
jtwc_sh bsh112000.txt ATCF
bom IDCKMSTM0S.csv:Line=21631:LEON CSV file (from Excel file)
reunion WMO-Best-Tracks.txt:Line=18902:eline WMO (old format)
neumann tracks.sh:Storm=1185:LEONE/ELINE:11S:BSH112000 HURDAT